RYR5AM LKPR-LIPE
Flight info
| Callsign | RYR5AM |
|---|---|
| Flight time | 1h 15m |
| Altitude | 31000 |
| Route | DOBEN DCT RUDAP P31 DOSEL M736 OLPIX DCT EKPEB DCT NAXAV DCT ADOSA M738 BENUS |
| Aircraft | B738/M-SDE2E3FGHIRWXY/LB1 |
Departure
| Time | 2026-05-06 19:17 |
|---|---|
| Airport | Václav Havel Airport Prague (LKPR) |
Arrival
| Time | 2026-05-06 20:33 |
|---|---|
| Airport | Bologna Guglielmo Marconi Airport (LIPE) |
| Time | Latitude | Longitude | Altitude | Speed | Heading |
|---|---|---|---|---|---|
| 2026-05-06 18:48 | 50.10718 | 14.26031 | 1256 ft | 0 kts | 124° |
| 2026-05-06 19:10 | 50.10717 | 14.26034 | 1255 ft | 0 kts | 124° |
| 2026-05-06 19:10 | 50.10710 | 14.26048 | 1255 ft | 2 kts | 123° |
| 2026-05-06 19:10 | 50.10695 | 14.26085 | 1255 ft | 5 kts | 124° |
| 2026-05-06 19:10 | 50.10663 | 14.26097 | 1255 ft | 6 kts | 202° |
| 2026-05-06 19:11 | 50.10617 | 14.26055 | 1255 ft | 9 kts | 211° |
| 2026-05-06 19:11 | 50.10556 | 14.25995 | 1255 ft | 11 kts | 212° |
| 2026-05-06 19:11 | 50.10533 | 14.25966 | 1255 ft | 4 kts | 230° |
| 2026-05-06 19:11 | 50.10529 | 14.25919 | 1255 ft | 4 kts | 292° |
| 2026-05-06 19:12 | 50.10552 | 14.25863 | 1255 ft | 7 kts | 303° |
| 2026-05-06 19:12 | 50.10590 | 14.25769 | 1255 ft | 12 kts | 301° |
| 2026-05-06 19:12 | 50.10634 | 14.25652 | 1255 ft | 11 kts | 298° |
| 2026-05-06 19:12 | 50.10648 | 14.25609 | 1255 ft | 0 kts | 297° |
| 2026-05-06 19:13 | 50.10648 | 14.25583 | 1255 ft | 4 kts | 246° |
| 2026-05-06 19:13 | 50.10622 | 14.25527 | 1255 ft | 7 kts | 245° |
| 2026-05-06 19:13 | 50.10601 | 14.25445 | 1255 ft | 7 kts | 247° |
| 2026-05-06 19:13 | 50.10588 | 14.25380 | 1255 ft | 5 kts | 259° |
| 2026-05-06 19:14 | 50.10581 | 14.25322 | 1255 ft | 6 kts | 258° |
| 2026-05-06 19:14 | 50.10577 | 14.25296 | 1255 ft | 0 kts | 258° |
| 2026-05-06 19:16 | 50.10569 | 14.25235 | 1255 ft | 12 kts | 255° |
| 2026-05-06 19:16 | 50.10502 | 14.25152 | 1255 ft | 13 kts | 154° |
| 2026-05-06 19:16 | 50.10407 | 14.25348 | 1255 ft | 51 kts | 125° |
| 2026-05-06 19:17 | 50.10028 | 14.26129 | 1255 ft | 126 kts | 126° |
| 2026-05-06 19:17 | 50.09380 | 14.27482 | 1339 ft | 176 kts | 127° |
| 2026-05-06 19:17 | 50.08607 | 14.29092 | 1800 ft | 196 kts | 127° |
| 2026-05-06 19:17 | 50.07782 | 14.30840 | 2405 ft | 210 kts | 126° |
| 2026-05-06 19:18 | 50.06939 | 14.32662 | 3193 ft | 207 kts | 126° |
| 2026-05-06 19:18 | 50.06065 | 14.34559 | 3601 ft | 226 kts | 127° |
| 2026-05-06 19:18 | 50.05042 | 14.36569 | 4069 ft | 242 kts | 129° |
| 2026-05-06 19:18 | 50.04019 | 14.38605 | 4811 ft | 247 kts | 127° |
| 2026-05-06 19:19 | 50.02953 | 14.40780 | 4949 ft | 251 kts | 127° |
| 2026-05-06 19:19 | 50.01912 | 14.42914 | 4973 ft | 246 kts | 127° |
| 2026-05-06 19:19 | 50.00876 | 14.45039 | 4972 ft | 246 kts | 127° |
| 2026-05-06 19:19 | 49.99958 | 14.47270 | 4965 ft | 246 kts | 110° |
| 2026-05-06 19:20 | 49.99858 | 14.49986 | 5324 ft | 265 kts | 73° |
| 2026-05-06 19:20 | 50.00853 | 14.52347 | 6189 ft | 270 kts | 40° |
| 2026-05-06 19:20 | 50.02435 | 14.53988 | 6845 ft | 281 kts | 33° |
| 2026-05-06 19:20 | 50.04032 | 14.55811 | 7554 ft | 289 kts | 39° |
| 2026-05-06 19:21 | 50.05625 | 14.57738 | 8315 ft | 295 kts | 37° |
| 2026-05-06 19:21 | 50.07290 | 14.59683 | 8724 ft | 305 kts | 37° |
| 2026-05-06 19:21 | 50.08971 | 14.61635 | 8753 ft | 301 kts | 37° |
| 2026-05-06 19:21 | 50.10738 | 14.63634 | 9231 ft | 314 kts | 31° |
| 2026-05-06 19:22 | 50.12700 | 14.64846 | 10143 ft | 312 kts | 7° |
| 2026-05-06 19:22 | 50.14914 | 14.64671 | 10401 ft | 329 kts | 339° |
| 2026-05-06 19:22 | 50.16954 | 14.63125 | 11208 ft | 327 kts | 328° |
| 2026-05-06 19:22 | 50.18979 | 14.61458 | 11766 ft | 338 kts | 330° |
| 2026-05-06 19:23 | 50.21097 | 14.59898 | 12618 ft | 338 kts | 332° |
| 2026-05-06 19:23 | 50.23235 | 14.58338 | 13265 ft | 343 kts | 331° |
| 2026-05-06 19:23 | 50.25392 | 14.56765 | 14048 ft | 344 kts | 331° |
| 2026-05-06 19:23 | 50.27564 | 14.55191 | 14729 ft | 347 kts | 330° |
| 2026-05-06 19:24 | 50.29740 | 14.53601 | 15351 ft | 350 kts | 328° |
| 2026-05-06 19:24 | 50.31730 | 14.51423 | 15815 ft | 349 kts | 309° |
| 2026-05-06 19:24 | 50.33014 | 14.48284 | 15861 ft | 340 kts | 284° |
| 2026-05-06 19:24 | 50.33293 | 14.44692 | 15874 ft | 333 kts | 264° |
| 2026-05-06 19:25 | 50.32983 | 14.41089 | 15849 ft | 332 kts | 255° |
| 2026-05-06 19:25 | 50.32108 | 14.37843 | 15864 ft | 329 kts | 233° |
| 2026-05-06 19:25 | 50.30408 | 14.35457 | 15878 ft | 331 kts | 211° |
| 2026-05-06 19:25 | 50.28401 | 14.33733 | 15844 ft | 333 kts | 213° |
| 2026-05-06 19:26 | 50.26534 | 14.31638 | 15874 ft | 330 kts | 218° |
| 2026-05-06 19:26 | 50.24667 | 14.29476 | 15865 ft | 330 kts | 216° |
| 2026-05-06 19:26 | 50.22778 | 14.27442 | 15853 ft | 333 kts | 215° |
| 2026-05-06 19:26 | 50.20852 | 14.25398 | 16071 ft | 343 kts | 215° |
| 2026-05-06 19:27 | 50.18891 | 14.23322 | 16902 ft | 339 kts | 215° |
| 2026-05-06 19:27 | 50.16911 | 14.21240 | 17437 ft | 344 kts | 215° |
| 2026-05-06 19:27 | 50.14949 | 14.19186 | 18209 ft | 341 kts | 215° |
| 2026-05-06 19:27 | 50.12969 | 14.17118 | 18747 ft | 345 kts | 215° |
| 2026-05-06 19:28 | 50.10980 | 14.15043 | 19327 ft | 347 kts | 215° |
| 2026-05-06 19:28 | 50.08960 | 14.12941 | 19886 ft | 349 kts | 215° |
| 2026-05-06 19:28 | 50.06948 | 14.10850 | 20408 ft | 352 kts | 215° |
| 2026-05-06 19:28 | 50.04897 | 14.08719 | 20933 ft | 354 kts | 215° |
| 2026-05-06 19:29 | 50.02853 | 14.06600 | 21433 ft | 356 kts | 215° |
| 2026-05-06 19:29 | 50.00806 | 14.04479 | 21917 ft | 359 kts | 215° |
| 2026-05-06 19:29 | 49.98733 | 14.02333 | 22391 ft | 361 kts | 215° |
| 2026-05-06 19:29 | 49.96616 | 14.00144 | 22855 ft | 363 kts | 215° |
| 2026-05-06 19:30 | 49.94532 | 13.97992 | 23298 ft | 365 kts | 215° |
| 2026-05-06 19:30 | 49.92400 | 13.95791 | 23737 ft | 367 kts | 215° |
| 2026-05-06 19:30 | 49.90277 | 13.93603 | 24184 ft | 369 kts | 215° |
| 2026-05-06 19:30 | 49.88135 | 13.91391 | 24613 ft | 370 kts | 215° |
| 2026-05-06 19:31 | 49.86006 | 13.89191 | 25032 ft | 372 kts | 215° |
| 2026-05-06 19:31 | 49.83860 | 13.86991 | 25440 ft | 374 kts | 215° |
| 2026-05-06 19:31 | 49.79506 | 13.82534 | 26201 ft | 377 kts | 214° |
| 2026-05-06 19:32 | 49.77318 | 13.80295 | 26617 ft | 378 kts | 214° |
| 2026-05-06 19:32 | 49.75125 | 13.78053 | 27003 ft | 379 kts | 214° |
| 2026-05-06 19:32 | 49.72946 | 13.75827 | 27251 ft | 383 kts | 214° |
| 2026-05-06 19:32 | 49.70704 | 13.73540 | 27531 ft | 386 kts | 214° |
| 2026-05-06 19:33 | 49.68483 | 13.71277 | 27964 ft | 385 kts | 214° |
| 2026-05-06 19:33 | 49.66238 | 13.68991 | 28161 ft | 389 kts | 214° |
| 2026-05-06 19:33 | 49.63970 | 13.66684 | 28592 ft | 388 kts | 214° |
| 2026-05-06 19:33 | 49.61718 | 13.64396 | 28793 ft | 392 kts | 214° |
| 2026-05-06 19:34 | 49.59454 | 13.62098 | 29131 ft | 392 kts | 214° |
| 2026-05-06 19:34 | 49.57179 | 13.59792 | 29410 ft | 394 kts | 214° |
| 2026-05-06 19:34 | 49.54881 | 13.57465 | 29678 ft | 396 kts | 214° |
| 2026-05-06 19:34 | 49.52586 | 13.55145 | 29952 ft | 397 kts | 214° |
| 2026-05-06 19:35 | 49.50269 | 13.52803 | 30207 ft | 399 kts | 214° |
| 2026-05-06 19:35 | 49.47966 | 13.50480 | 30455 ft | 400 kts | 214° |
| 2026-05-06 19:35 | 49.45620 | 13.48116 | 30709 ft | 401 kts | 214° |
| 2026-05-06 19:35 | 49.43298 | 13.45778 | 30710 ft | 400 kts | 214° |
| 2026-05-06 19:36 | 49.38710 | 13.41174 | 30711 ft | 396 kts | 214° |
| 2026-05-06 19:36 | 49.34131 | 13.36586 | 30711 ft | 396 kts | 214° |
| 2026-05-06 19:37 | 49.29527 | 13.31982 | 30711 ft | 397 kts | 213° |
| 2026-05-06 19:37 | 49.24907 | 13.27370 | 30710 ft | 396 kts | 214° |
| 2026-05-06 19:38 | 49.20344 | 13.22826 | 30709 ft | 390 kts | 214° |
| 2026-05-06 19:38 | 49.15747 | 13.18254 | 30711 ft | 398 kts | 214° |
| 2026-05-06 19:39 | 49.11122 | 13.13668 | 30709 ft | 397 kts | 214° |
| 2026-05-06 19:39 | 49.06504 | 13.09098 | 30710 ft | 396 kts | 214° |
| 2026-05-06 19:40 | 49.01893 | 13.04545 | 30710 ft | 396 kts | 214° |
| 2026-05-06 19:40 | 48.97259 | 12.99979 | 30710 ft | 396 kts | 214° |
| 2026-05-06 19:41 | 48.92582 | 12.95380 | 30711 ft | 406 kts | 214° |
| 2026-05-06 19:41 | 48.87800 | 12.90690 | 30711 ft | 417 kts | 214° |
| 2026-05-06 19:42 | 48.82870 | 12.85867 | 30710 ft | 426 kts | 214° |
| 2026-05-06 19:42 | 48.77846 | 12.80964 | 30709 ft | 433 kts | 214° |
| 2026-05-06 19:43 | 48.72803 | 12.76056 | 30735 ft | 431 kts | 214° |
| 2026-05-06 19:43 | 48.67756 | 12.71153 | 30784 ft | 435 kts | 214° |
| 2026-05-06 19:44 | 48.62663 | 12.66219 | 30782 ft | 436 kts | 214° |
| 2026-05-06 19:44 | 48.57567 | 12.61293 | 30783 ft | 435 kts | 214° |
| 2026-05-06 19:45 | 48.52463 | 12.56372 | 30783 ft | 435 kts | 214° |
| 2026-05-06 19:45 | 48.47398 | 12.51499 | 30783 ft | 435 kts | 214° |
| 2026-05-06 19:46 | 48.42414 | 12.46334 | 30785 ft | 434 kts | 221° |
| 2026-05-06 19:46 | 48.37878 | 12.40429 | 30783 ft | 434 kts | 221° |
| 2026-05-06 19:47 | 48.33260 | 12.34564 | 30783 ft | 434 kts | 221° |
| 2026-05-06 19:47 | 48.28661 | 12.28714 | 30783 ft | 434 kts | 221° |
| 2026-05-06 19:48 | 48.24060 | 12.22878 | 30806 ft | 432 kts | 220° |
| 2026-05-06 19:48 | 48.19555 | 12.17176 | 30861 ft | 417 kts | 220° |
| 2026-05-06 19:49 | 48.15176 | 12.11647 | 30863 ft | 412 kts | 220° |
| 2026-05-06 19:49 | 48.10767 | 12.06090 | 30863 ft | 415 kts | 220° |
| 2026-05-06 19:50 | 48.06344 | 12.00530 | 30862 ft | 415 kts | 220° |
| 2026-05-06 19:50 | 48.01955 | 11.95025 | 30862 ft | 415 kts | 220° |
| 2026-05-06 19:51 | 47.97532 | 11.89492 | 30862 ft | 415 kts | 220° |
| 2026-05-06 19:51 | 47.93019 | 11.84064 | 30860 ft | 415 kts | 215° |
| 2026-05-06 19:52 | 47.87807 | 11.80544 | 30864 ft | 422 kts | 196° |
| 2026-05-06 19:52 | 47.81925 | 11.79636 | 30862 ft | 428 kts | 186° |
| 2026-05-06 19:53 | 47.76023 | 11.79309 | 30862 ft | 427 kts | 187° |
| 2026-05-06 19:53 | 47.70100 | 11.78929 | 30800 ft | 424 kts | 187° |
| 2026-05-06 19:54 | 47.64287 | 11.78588 | 30804 ft | 421 kts | 187° |
| 2026-05-06 19:54 | 47.58396 | 11.78243 | 30803 ft | 423 kts | 187° |
| 2026-05-06 19:55 | 47.52529 | 11.77909 | 30803 ft | 423 kts | 187° |
| 2026-05-06 19:55 | 47.46702 | 11.77580 | 30803 ft | 423 kts | 187° |
| 2026-05-06 19:56 | 47.40803 | 11.77248 | 30803 ft | 423 kts | 187° |
| 2026-05-06 19:56 | 47.34948 | 11.76921 | 30803 ft | 423 kts | 187° |
| 2026-05-06 19:57 | 47.29082 | 11.76594 | 30803 ft | 423 kts | 187° |
| 2026-05-06 19:57 | 47.23194 | 11.76268 | 30819 ft | 422 kts | 187° |
| 2026-05-06 19:58 | 47.17381 | 11.75947 | 30904 ft | 421 kts | 187° |
| 2026-05-06 19:58 | 47.11625 | 11.74934 | 30906 ft | 415 kts | 198° |
| 2026-05-06 19:59 | 47.06304 | 11.72035 | 30890 ft | 406 kts | 208° |
| 2026-05-06 19:59 | 47.01172 | 11.68584 | 30889 ft | 407 kts | 207° |
| 2026-05-06 20:00 | 46.96002 | 11.65167 | 30888 ft | 407 kts | 207° |
| 2026-05-06 20:00 | 46.90863 | 11.61738 | 30888 ft | 407 kts | 207° |
| 2026-05-06 20:01 | 46.85706 | 11.58302 | 30889 ft | 407 kts | 207° |
| 2026-05-06 20:01 | 46.80575 | 11.54884 | 30889 ft | 407 kts | 207° |
| 2026-05-06 20:02 | 46.75422 | 11.51456 | 30889 ft | 407 kts | 207° |
| 2026-05-06 20:02 | 46.70290 | 11.48049 | 30890 ft | 405 kts | 207° |
| 2026-05-06 20:03 | 46.65189 | 11.44664 | 30890 ft | 404 kts | 207° |
| 2026-05-06 20:03 | 46.60074 | 11.41273 | 30890 ft | 405 kts | 207° |
| 2026-05-06 20:04 | 46.54944 | 11.37881 | 30890 ft | 405 kts | 207° |
| 2026-05-06 20:04 | 46.49837 | 11.34511 | 30890 ft | 405 kts | 207° |
| 2026-05-06 20:05 | 46.44526 | 11.31690 | 30892 ft | 410 kts | 198° |
| 2026-05-06 20:05 | 46.39007 | 11.29666 | 30890 ft | 410 kts | 199° |
| 2026-05-06 20:06 | 46.33506 | 11.27585 | 30890 ft | 410 kts | 198° |
| 2026-05-06 20:06 | 46.27997 | 11.25553 | 30890 ft | 410 kts | 198° |
| 2026-05-06 20:07 | 46.22509 | 11.23544 | 30889 ft | 407 kts | 198° |
| 2026-05-06 20:07 | 46.17053 | 11.21556 | 30897 ft | 406 kts | 198° |
| 2026-05-06 20:08 | 46.11554 | 11.19557 | 30896 ft | 407 kts | 198° |
| 2026-05-06 20:08 | 46.06080 | 11.17576 | 30896 ft | 407 kts | 198° |
| 2026-05-06 20:09 | 46.00611 | 11.15602 | 30896 ft | 407 kts | 198° |
| 2026-05-06 20:09 | 45.95141 | 11.13632 | 30896 ft | 407 kts | 198° |
| 2026-05-06 20:10 | 45.89656 | 11.11661 | 30897 ft | 407 kts | 198° |
| 2026-05-06 20:10 | 45.86890 | 11.10668 | 30719 ft | 411 kts | 198° |
| 2026-05-06 20:10 | 45.84116 | 11.09674 | 30192 ft | 410 kts | 198° |
| 2026-05-06 20:11 | 45.81400 | 11.08704 | 29632 ft | 404 kts | 198° |
| 2026-05-06 20:11 | 45.78687 | 11.07735 | 29061 ft | 402 kts | 198° |
| 2026-05-06 20:11 | 45.75986 | 11.06767 | 28490 ft | 405 kts | 198° |
| 2026-05-06 20:11 | 45.73253 | 11.05789 | 27889 ft | 406 kts | 198° |
| 2026-05-06 20:12 | 45.70544 | 11.04827 | 27307 ft | 397 kts | 198° |
| 2026-05-06 20:12 | 45.67884 | 11.03910 | 26745 ft | 390 kts | 196° |
| 2026-05-06 20:12 | 45.65263 | 11.03299 | 26201 ft | 385 kts | 190° |
| 2026-05-06 20:12 | 45.62590 | 11.03263 | 25654 ft | 385 kts | 180° |
| 2026-05-06 20:13 | 45.59969 | 11.03818 | 25116 ft | 382 kts | 176° |
| 2026-05-06 20:13 | 45.57363 | 11.04481 | 24574 ft | 375 kts | 176° |
| 2026-05-06 20:13 | 45.54823 | 11.05071 | 24049 ft | 369 kts | 177° |
| 2026-05-06 20:13 | 45.52329 | 11.05647 | 23531 ft | 363 kts | 176° |
| 2026-05-06 20:14 | 45.49879 | 11.06228 | 23022 ft | 358 kts | 176° |
| 2026-05-06 20:14 | 45.47446 | 11.06811 | 22504 ft | 348 kts | 176° |
| 2026-05-06 20:14 | 45.45121 | 11.07372 | 22033 ft | 332 kts | 176° |
| 2026-05-06 20:14 | 45.42892 | 11.07907 | 21568 ft | 319 kts | 177° |
| 2026-05-06 20:15 | 45.40762 | 11.08414 | 21129 ft | 314 kts | 177° |
| 2026-05-06 20:15 | 45.38564 | 11.08931 | 20676 ft | 324 kts | 176° |
| 2026-05-06 20:15 | 45.36360 | 11.09461 | 20197 ft | 316 kts | 176° |
| 2026-05-06 20:15 | 45.34259 | 11.09972 | 19767 ft | 312 kts | 176° |
| 2026-05-06 20:16 | 45.32103 | 11.10484 | 19271 ft | 313 kts | 176° |
| 2026-05-06 20:16 | 45.29964 | 11.10997 | 18273 ft | 318 kts | 176° |
| 2026-05-06 20:16 | 45.27804 | 11.11515 | 17572 ft | 312 kts | 176° |
| 2026-05-06 20:16 | 45.25670 | 11.12029 | 16735 ft | 312 kts | 175° |
| 2026-05-06 20:17 | 45.23547 | 11.12536 | 15989 ft | 308 kts | 174° |
| 2026-05-06 20:17 | 45.21476 | 11.13034 | 15262 ft | 305 kts | 174° |
| 2026-05-06 20:17 | 45.19386 | 11.13533 | 14499 ft | 302 kts | 174° |
| 2026-05-06 20:17 | 45.17339 | 11.14023 | 13760 ft | 299 kts | 173° |
| 2026-05-06 20:18 | 45.15339 | 11.14502 | 13143 ft | 292 kts | 173° |
| 2026-05-06 20:18 | 45.13367 | 11.14975 | 12709 ft | 286 kts | 173° |
| 2026-05-06 20:18 | 45.11365 | 11.15449 | 12290 ft | 295 kts | 173° |
| 2026-05-06 20:18 | 45.09371 | 11.15926 | 11845 ft | 287 kts | 174° |
| 2026-05-06 20:19 | 45.07406 | 11.16396 | 11442 ft | 290 kts | 174° |
| 2026-05-06 20:19 | 45.05412 | 11.16869 | 11010 ft | 292 kts | 174° |
| 2026-05-06 20:19 | 45.03440 | 11.17342 | 10595 ft | 285 kts | 174° |
| 2026-05-06 20:19 | 45.01477 | 11.17806 | 10234 ft | 291 kts | 174° |
| 2026-05-06 20:20 | 44.99512 | 11.18276 | 10023 ft | 281 kts | 174° |
| 2026-05-06 20:20 | 44.97608 | 11.18731 | 9782 ft | 274 kts | 174° |
| 2026-05-06 20:20 | 44.95743 | 11.19172 | 9414 ft | 272 kts | 174° |
| 2026-05-06 20:20 | 44.93903 | 11.19608 | 9068 ft | 269 kts | 174° |
| 2026-05-06 20:21 | 44.92063 | 11.19975 | 8720 ft | 264 kts | 182° |
| 2026-05-06 20:21 | 44.90311 | 11.19543 | 8390 ft | 254 kts | 206° |
| 2026-05-06 20:21 | 44.88848 | 11.18236 | 8069 ft | 249 kts | 219° |
| 2026-05-06 20:21 | 44.87504 | 11.16692 | 7733 ft | 247 kts | 219° |
| 2026-05-06 20:22 | 44.86171 | 11.15192 | 7409 ft | 244 kts | 219° |
| 2026-05-06 20:22 | 44.84866 | 11.13713 | 7092 ft | 242 kts | 219° |
| 2026-05-06 20:22 | 44.83562 | 11.12231 | 6885 ft | 241 kts | 219° |
| 2026-05-06 20:22 | 44.82251 | 11.10740 | 6671 ft | 248 kts | 219° |
| 2026-05-06 20:23 | 44.80911 | 11.09216 | 6318 ft | 246 kts | 219° |
| 2026-05-06 20:23 | 44.79591 | 11.07717 | 6142 ft | 237 kts | 219° |
| 2026-05-06 20:23 | 44.78302 | 11.06252 | 5805 ft | 244 kts | 219° |
| 2026-05-06 20:23 | 44.76975 | 11.04745 | 5444 ft | 243 kts | 219° |
| 2026-05-06 20:24 | 44.75675 | 11.03270 | 5136 ft | 240 kts | 219° |
| 2026-05-06 20:24 | 44.74381 | 11.01873 | 4994 ft | 230 kts | 211° |
| 2026-05-06 20:24 | 44.72952 | 11.00838 | 4718 ft | 227 kts | 207° |
| 2026-05-06 20:24 | 44.71551 | 10.99866 | 4438 ft | 225 kts | 208° |
| 2026-05-06 20:25 | 44.70166 | 10.98893 | 4167 ft | 226 kts | 208° |
| 2026-05-06 20:25 | 44.68778 | 10.97921 | 3963 ft | 218 kts | 208° |
| 2026-05-06 20:25 | 44.67435 | 10.97099 | 3863 ft | 204 kts | 196° |
| 2026-05-06 20:25 | 44.66071 | 10.97098 | 3785 ft | 197 kts | 168° |
| 2026-05-06 20:26 | 44.64903 | 10.98149 | 3574 ft | 207 kts | 133° |
| 2026-05-06 20:26 | 44.64144 | 10.99826 | 3493 ft | 193 kts | 126° |
| 2026-05-06 20:26 | 44.63471 | 11.01395 | 3456 ft | 185 kts | 127° |
| 2026-05-06 20:26 | 44.63298 | 11.01797 | 3471 ft | 185 kts | 126° |
| 2026-05-06 20:27 | 44.62858 | 11.02910 | 3563 ft | 186 kts | 122° |
| 2026-05-06 20:27 | 44.62256 | 11.04551 | 3563 ft | 190 kts | 122° |
| 2026-05-06 20:27 | 44.61663 | 11.06201 | 3516 ft | 191 kts | 122° |
| 2026-05-06 20:27 | 44.61061 | 11.07888 | 3220 ft | 189 kts | 121° |
| 2026-05-06 20:28 | 44.60485 | 11.09502 | 2987 ft | 186 kts | 122° |
| 2026-05-06 20:28 | 44.59904 | 11.11126 | 2737 ft | 186 kts | 122° |
| 2026-05-06 20:28 | 44.59330 | 11.12734 | 2482 ft | 185 kts | 122° |
| 2026-05-06 20:28 | 44.59108 | 11.13355 | 2384 ft | 185 kts | 122° |
| 2026-05-06 20:29 | 44.58717 | 11.14447 | 2211 ft | 184 kts | 122° |
| 2026-05-06 20:29 | 44.58711 | 11.14463 | 2208 ft | 184 kts | 122° |
| 2026-05-06 20:30 | 44.57668 | 11.17378 | 1765 ft | 182 kts | 122° |
| 2026-05-06 20:30 | 44.57111 | 11.18934 | 1537 ft | 176 kts | 122° |
| 2026-05-06 20:31 | 44.56564 | 11.20461 | 1253 ft | 170 kts | 122° |
| 2026-05-06 20:31 | 44.56059 | 11.21870 | 1019 ft | 157 kts | 123° |
| 2026-05-06 20:31 | 44.55571 | 11.23226 | 844 ft | 153 kts | 123° |
| 2026-05-06 20:31 | 44.55096 | 11.24552 | 629 ft | 153 kts | 122° |
| 2026-05-06 20:32 | 44.54625 | 11.25888 | 431 ft | 155 kts | 124° |
| 2026-05-06 20:32 | 44.54122 | 11.27264 | 220 ft | 156 kts | 125° |
| 2026-05-06 20:32 | 44.53652 | 11.28542 | 118 ft | 128 kts | 122° |
| 2026-05-06 20:32 | 44.53351 | 11.29369 | 124 ft | 65 kts | 114° |
| 2026-05-06 20:33 | 44.53147 | 11.29695 | 124 ft | 37 kts | 146° |
| 2026-05-06 20:33 | 44.53029 | 11.29753 | 125 ft | 9 kts | 253° |
| 2026-05-06 20:33 | 44.53048 | 11.29686 | 126 ft | 5 kts | 297° |
| 2026-05-06 20:33 | 44.53057 | 11.29662 | 126 ft | 0 kts | 298° |
| 2026-05-06 20:34 | 44.53061 | 11.29650 | 126 ft | 3 kts | 298° |
| 2026-05-06 20:34 | 44.53080 | 11.29602 | 127 ft | 7 kts | 296° |
| 2026-05-06 20:34 | 44.53064 | 11.29543 | 128 ft | 5 kts | 233° |
| 2026-05-06 20:34 | 44.53079 | 11.29466 | 129 ft | 11 kts | 295° |
| 2026-05-06 20:35 | 44.53111 | 11.29359 | 128 ft | 8 kts | 256° |
| 2026-05-06 20:35 | 44.53074 | 11.29319 | 129 ft | 2 kts | 207° |
| 2026-05-06 20:35 | 44.53071 | 11.29317 | 129 ft | 0 kts | 206° |